createdAt,value
2023-02-14T00:01:55.935Z,7.90
2023-02-14T00:04:24.491Z,7.90
2023-02-14T00:06:53.052Z,7.90
2023-02-14T00:09:22.066Z,7.90
2023-02-14T00:11:50.904Z,7.90
2023-02-14T00:14:37.367Z,8.00
2023-02-14T00:17:07.166Z,8.20
2023-02-14T00:19:36.399Z,7.80
2023-02-14T00:22:05.630Z,7.80
2023-02-14T00:24:34.652Z,8.00
2023-02-14T00:27:03.027Z,7.80
2023-02-14T00:29:33.890Z,7.70
2023-02-14T00:32:03.916Z,7.70
2023-02-14T00:34:36.566Z,8.50
2023-02-14T00:37:05.258Z,7.60
2023-02-14T00:39:33.622Z,7.60
2023-02-14T00:42:01.977Z,7.50
2023-02-14T00:44:30.546Z,7.50
2023-02-14T00:46:58.915Z,7.50
2023-02-14T00:49:27.191Z,7.40
2023-02-14T00:51:56.937Z,7.40
2023-02-14T00:54:25.393Z,7.40
2023-02-14T00:56:53.743Z,7.40
2023-02-14T00:59:22.141Z,7.40
2023-02-14T01:01:50.606Z,7.30
2023-02-14T01:04:19.118Z,7.30
2023-02-14T01:06:47.683Z,7.30
2023-02-14T01:09:17.367Z,7.30
2023-02-14T01:11:45.704Z,7.40
2023-02-14T01:14:16.510Z,7.30
2023-02-14T01:16:44.874Z,7.20
2023-02-14T01:19:13.366Z,7.60
2023-02-14T01:21:45.147Z,7.20
2023-02-14T01:24:14.054Z,7.20
2023-02-14T01:26:45.998Z,7.20
2023-02-14T01:29:14.369Z,7.20
2023-02-14T01:31:42.807Z,7.20
2023-02-14T01:34:11.321Z,7.20
2023-02-14T01:36:41.347Z,7.20
2023-02-14T01:39:13.630Z,7.10
2023-02-14T01:41:43.927Z,7.10
2023-02-14T01:44:56.757Z,7.10
2023-02-14T01:47:25.889Z,7.10
2023-02-14T01:49:59.679Z,7.10
2023-02-14T01:52:33.799Z,7.10
2023-02-14T01:55:07.010Z,7.10
2023-02-14T01:57:42.281Z,7.30
2023-02-14T02:00:31.446Z,7.40
2023-02-14T02:03:02.723Z,7.10
2023-02-14T02:05:31.548Z,7.10
2023-02-14T02:08:02.472Z,7.40
2023-02-14T02:10:31.099Z,7.10
2023-02-14T02:13:05.272Z,7.10
2023-02-14T02:15:43.617Z,7.10
2023-02-14T02:18:19.909Z,7.30
2023-02-14T02:21:34.090Z,7.40
2023-02-14T02:24:23.076Z,7.10
2023-02-14T02:27:22.554Z,7.10
2023-02-14T02:31:03.219Z,7.10
2023-02-14T02:34:32.054Z,7.10
2023-02-14T02:37:17.491Z,7.10
2023-02-14T02:40:08.168Z,7.10
2023-02-14T02:42:48.124Z,7.10
2023-02-14T02:45:27.133Z,7.10
2023-02-14T02:48:03.749Z,7.10
2023-02-14T02:50:57.387Z,7.10
2023-02-14T02:53:35.232Z,7.10
2023-02-14T02:56:26.161Z,7.00
2023-02-14T02:58:58.978Z,7.10
2023-02-14T03:01:32.193Z,7.00
2023-02-14T03:04:21.939Z,7.00
2023-02-14T03:06:50.579Z,7.00
2023-02-14T03:09:56.725Z,7.00
2023-02-14T03:13:10.303Z,7.00
2023-02-14T03:16:13.259Z,7.00
2023-02-14T03:18:55.257Z,7.00
2023-02-14T03:21:31.568Z,7.00
2023-02-14T03:24:11.173Z,7.00
2023-02-14T03:26:50.029Z,7.00
2023-02-14T03:29:29.001Z,7.10
2023-02-14T03:32:05.331Z,7.30
2023-02-14T03:34:39.492Z,7.00
2023-02-14T03:37:13.937Z,7.30
2023-02-14T03:39:48.811Z,7.20
2023-02-14T03:42:23.511Z,7.00
2023-02-14T03:44:55.973Z,6.90
2023-02-14T03:47:28.716Z,6.90
2023-02-14T03:50:02.181Z,7.20
2023-02-14T03:52:31.563Z,7.00
2023-02-14T03:55:03.650Z,6.90
2023-02-14T03:57:40.034Z,7.00
2023-02-14T04:00:10.347Z,6.90
2023-02-14T04:02:46.678Z,6.90
2023-02-14T04:05:21.008Z,7.00
2023-02-14T04:07:53.878Z,6.90
2023-02-14T04:10:26.186Z,7.30
2023-02-14T04:12:55.891Z,6.90
2023-02-14T04:15:24.299Z,6.90
2023-02-14T04:18:10.114Z,7.00
2023-02-14T04:20:38.639Z,7.20
2023-02-14T04:23:06.920Z,6.90
2023-02-14T04:25:35.366Z,6.90
2023-02-14T04:28:05.355Z,6.90
2023-02-14T04:30:33.622Z,6.90
2023-02-14T04:33:01.981Z,6.90
2023-02-14T04:35:30.424Z,6.90
2023-02-14T04:37:58.828Z,6.90
2023-02-14T04:40:27.155Z,6.90
2023-02-14T04:42:55.591Z,6.90
2023-02-14T04:45:25.580Z,6.90
2023-02-14T04:47:53.893Z,6.90
2023-02-14T04:50:23.400Z,6.90
2023-02-14T04:52:51.749Z,6.90
2023-02-14T04:55:20.542Z,7.10
2023-02-14T04:57:48.971Z,6.90
2023-02-14T05:00:18.446Z,6.90
2023-02-14T05:02:48.066Z,6.90
2023-02-14T05:05:16.599Z,7.00
2023-02-14T05:07:47.773Z,6.90
2023-02-14T05:10:16.557Z,6.90
2023-02-14T05:12:44.970Z,6.90
2023-02-14T05:15:13.446Z,6.90
2023-02-14T05:17:41.748Z,6.90
2023-02-14T05:20:12.464Z,6.90
2023-02-14T05:22:40.818Z,6.90
2023-02-14T05:25:09.576Z,6.90
2023-02-14T05:27:37.944Z,6.90
2023-02-14T05:30:08.108Z,6.90
2023-02-14T05:32:36.436Z,6.90
2023-02-14T05:35:05.486Z,6.90
2023-02-14T05:37:35.201Z,6.90
2023-02-14T05:40:03.554Z,6.90
2023-02-14T05:42:31.919Z,6.90
2023-02-14T05:45:00.237Z,6.90
2023-02-14T05:47:28.538Z,7.00
2023-02-14T05:49:56.896Z,7.20
2023-02-14T05:52:25.333Z,7.10
2023-02-14T05:54:55.224Z,7.20
2023-02-14T05:57:23.589Z,6.90
2023-02-14T05:59:51.943Z,7.20
2023-02-14T06:02:20.284Z,6.90
2023-02-14T06:04:48.731Z,7.00
2023-02-14T06:07:17.098Z,6.90
2023-02-14T06:09:45.406Z,6.90
2023-02-14T06:12:15.190Z,6.90
2023-02-14T06:14:45.101Z,6.90
2023-02-14T06:17:13.476Z,6.90
2023-02-14T06:19:43.294Z,6.90
2023-02-14T06:22:12.594Z,6.90
2023-02-14T06:24:40.976Z,6.90
2023-02-14T06:27:09.310Z,6.90
2023-02-14T06:29:38.972Z,7.30
2023-02-14T06:32:07.465Z,6.90
2023-02-14T06:34:35.907Z,6.90
2023-02-14T06:37:04.265Z,7.00
2023-02-14T06:39:32.618Z,7.00
2023-02-14T06:42:00.919Z,7.00
2023-02-14T06:44:29.222Z,7.00
2023-02-14T06:46:59.011Z,7.00
2023-02-14T06:49:27.408Z,7.30
2023-02-14T06:51:55.701Z,7.00
2023-02-14T06:54:24.047Z,7.00
2023-02-14T06:56:52.381Z,7.00
2023-02-14T06:59:20.658Z,7.00
2023-02-14T07:01:49.128Z,7.00
2023-02-14T07:04:18.838Z,7.00
2023-02-14T07:06:47.515Z,7.30
2023-02-14T07:09:17.895Z,7.00
2023-02-14T07:11:46.777Z,7.00
2023-02-14T07:14:15.316Z,7.00
2023-02-14T07:16:43.677Z,7.00
2023-02-14T07:19:12.143Z,7.00
2023-02-14T07:21:41.861Z,7.30
2023-02-14T07:24:10.255Z,7.10
2023-02-14T07:26:38.548Z,7.10
2023-02-14T07:29:06.881Z,7.40
2023-02-14T07:31:35.459Z,7.10
2023-02-14T07:34:03.854Z,7.40
2023-02-14T07:36:32.268Z,7.20
2023-02-14T07:39:02.008Z,7.10
2023-02-14T07:41:30.326Z,7.10
2023-02-14T07:43:58.600Z,7.20
2023-02-14T07:46:27.028Z,7.20
2023-02-14T07:48:55.405Z,7.20
2023-02-14T07:51:23.728Z,7.20
2023-02-14T07:53:52.191Z,7.20
2023-02-14T07:56:21.946Z,7.20
2023-02-14T07:58:50.736Z,7.20
2023-02-14T08:01:19.674Z,7.40
2023-02-14T08:03:50.121Z,7.30
2023-02-14T08:06:19.202Z,7.50
2023-02-14T08:08:48.551Z,7.30
2023-02-14T08:11:37.340Z,7.30
2023-02-14T08:14:07.186Z,7.40
2023-02-14T08:16:35.542Z,7.70
2023-02-14T08:19:03.945Z,7.60
2023-02-14T08:21:32.536Z,7.70
2023-02-14T08:24:00.892Z,7.90
2023-02-14T08:26:29.312Z,7.80
2023-02-14T08:28:57.721Z,7.50
2023-02-14T08:31:35.751Z,7.50
2023-02-14T08:34:05.309Z,7.50
2023-02-14T08:36:34.315Z,7.50
2023-02-14T08:39:03.631Z,7.50
2023-02-14T08:41:32.230Z,7.60
2023-02-14T08:44:00.714Z,7.90
2023-02-14T08:46:30.642Z,7.60
2023-02-14T08:48:59.101Z,7.90
2023-02-14T08:51:27.417Z,7.70
2023-02-14T08:53:56.065Z,7.70
2023-02-14T08:56:24.961Z,7.70
2023-02-14T08:58:54.604Z,7.70
2023-02-14T09:01:23.068Z,8.00
2023-02-14T09:03:53.007Z,7.80
2023-02-14T09:06:21.293Z,7.80
2023-02-14T09:08:49.597Z,7.90
2023-02-14T09:11:22.202Z,8.00
2023-02-14T09:13:53.216Z,7.90
2023-02-14T09:16:23.287Z,7.90
2023-02-14T09:18:54.681Z,7.90
2023-02-14T09:21:27.078Z,8.00
2023-02-14T09:23:55.888Z,8.20
2023-02-14T09:26:24.270Z,8.30
2023-02-14T09:28:52.558Z,8.40
2023-02-14T09:31:23.378Z,8.10
2023-02-14T09:34:11.330Z,8.10
2023-02-14T09:36:57.304Z,8.40
2023-02-14T09:39:25.936Z,8.20
2023-02-14T09:42:24.381Z,8.20
2023-02-14T09:44:58.092Z,8.20
2023-02-14T09:47:37.232Z,8.30
2023-02-14T09:50:16.539Z,8.40
2023-02-14T09:52:46.741Z,8.40
2023-02-14T09:55:17.721Z,8.40
2023-02-14T09:58:02.729Z,8.40
2023-02-14T10:00:38.790Z,8.50
2023-02-14T10:03:37.326Z,8.50
2023-02-14T10:06:22.336Z,8.60
2023-02-14T10:09:04.602Z,8.80
2023-02-14T10:11:33.380Z,8.70
2023-02-14T10:14:09.463Z,8.80
2023-02-14T10:16:44.067Z,8.90
2023-02-14T10:19:20.919Z,8.90
2023-02-14T10:21:56.129Z,8.90
2023-02-14T10:24:30.472Z,9.00
2023-02-14T10:27:10.914Z,9.00
2023-02-14T10:29:39.591Z,9.10
2023-02-14T10:32:15.726Z,9.20
2023-02-14T10:34:49.495Z,9.20
2023-02-14T10:37:35.660Z,9.20
2023-02-14T10:40:36.500Z,9.30
2023-02-14T10:43:18.116Z,9.40
2023-02-14T10:45:54.782Z,9.40
2023-02-14T10:48:38.604Z,9.40
2023-02-14T10:51:17.670Z,9.50
2023-02-14T10:54:05.183Z,9.60
2023-02-14T10:56:39.786Z,9.70
2023-02-14T10:59:21.973Z,9.80
2023-02-14T11:01:52.792Z,9.90
2023-02-14T11:04:23.668Z,10.00
2023-02-14T11:06:52.810Z,10.10
2023-02-14T11:09:22.799Z,10.20
2023-02-14T11:11:54.627Z,10.30
2023-02-14T11:14:28.661Z,10.40
2023-02-14T11:16:59.206Z,10.50
2023-02-14T11:19:30.417Z,10.70
2023-02-14T11:22:01.178Z,10.80
2023-02-14T11:24:34.301Z,10.90
2023-02-14T11:27:07.370Z,11.00
2023-02-14T11:29:45.069Z,11.20
2023-02-14T11:32:17.839Z,11.30
2023-02-14T11:34:53.843Z,11.40
2023-02-14T11:37:32.629Z,11.60
2023-02-14T11:40:03.905Z,11.70
2023-02-14T11:42:41.786Z,11.80
2023-02-14T11:45:30.770Z,12.00
2023-02-14T11:48:19.729Z,12.10
2023-02-14T11:50:58.896Z,12.30
2023-02-14T11:53:30.533Z,12.40
2023-02-14T11:56:01.282Z,12.50
2023-02-14T11:58:34.882Z,12.60
2023-02-14T12:01:04.439Z,12.70
2023-02-14T12:03:41.116Z,12.80
2023-02-14T12:06:09.804Z,12.90
2023-02-14T12:08:39.552Z,13.10
2023-02-14T12:11:22.746Z,13.10
2023-02-14T12:13:55.192Z,13.30
2023-02-14T12:16:30.046Z,13.30
2023-02-14T12:19:03.577Z,13.40
2023-02-14T12:21:45.564Z,13.50
2023-02-14T12:24:24.561Z,13.60
2023-02-14T12:27:04.479Z,13.70
2023-02-14T12:29:38.531Z,13.70
2023-02-14T12:32:24.897Z,13.80
2023-02-14T12:35:03.324Z,13.90
2023-02-14T12:37:42.306Z,13.90
2023-02-14T12:40:18.960Z,14.00
2023-02-14T12:43:04.867Z,14.00
2023-02-14T12:46:12.677Z,14.10
2023-02-14T12:48:58.845Z,14.10
2023-02-14T12:51:31.639Z,14.30
2023-02-14T12:54:13.045Z,14.20
2023-02-14T12:56:52.649Z,14.20
2023-02-14T12:59:30.380Z,14.20
2023-02-14T13:02:39.148Z,14.20
2023-02-14T13:05:20.149Z,14.30
2023-02-14T13:08:06.710Z,14.30
2023-02-14T13:10:53.147Z,14.30
2023-02-14T13:13:33.943Z,14.30
2023-02-14T13:16:16.764Z,14.40
2023-02-14T13:18:54.998Z,14.30
2023-02-14T13:21:28.860Z,14.40
2023-02-14T13:24:05.160Z,14.40
2023-02-14T13:26:37.969Z,14.40
2023-02-14T13:29:12.945Z,14.40
2023-02-14T13:31:43.398Z,14.40
2023-02-14T13:34:26.912Z,14.40
2023-02-14T13:36:58.524Z,14.40
2023-02-14T13:39:37.768Z,14.40
2023-02-14T13:42:07.658Z,14.40
2023-02-14T13:44:47.688Z,14.40
2023-02-14T13:47:22.456Z,14.40
2023-02-14T13:49:56.846Z,14.40
2023-02-14T13:52:42.931Z,14.40
2023-02-14T13:55:19.558Z,14.40
2023-02-14T13:58:01.802Z,14.40
2023-02-14T14:00:48.758Z,14.50
2023-02-14T14:03:55.700Z,14.40
2023-02-14T14:06:24.288Z,14.40
2023-02-14T14:08:56.194Z,14.40
2023-02-14T14:11:52.209Z,14.40
2023-02-14T14:14:39.986Z,14.30
2023-02-14T14:17:28.797Z,14.40
2023-02-14T14:19:58.788Z,14.30
2023-02-14T14:22:28.283Z,14.30
2023-02-14T14:25:01.057Z,14.30
2023-02-14T14:27:34.617Z,14.40
2023-02-14T14:30:06.515Z,14.30
2023-02-14T14:32:36.855Z,14.30
2023-02-14T14:35:16.925Z,14.30
2023-02-14T14:37:49.525Z,14.30
2023-02-14T14:40:26.061Z,14.30
2023-02-14T14:42:55.530Z,14.30
2023-02-14T14:45:27.041Z,14.50
2023-02-14T14:47:57.933Z,14.40
2023-02-14T14:50:31.689Z,14.30
2023-02-14T14:53:03.317Z,14.30
2023-02-14T14:55:35.355Z,14.20
2023-02-14T14:58:08.368Z,14.20
2023-02-14T15:00:42.290Z,14.20
2023-02-14T15:03:17.378Z,14.20
2023-02-14T15:05:49.458Z,14.20
2023-02-14T15:08:23.394Z,14.20
2023-02-14T15:10:55.616Z,14.20
2023-02-14T15:13:51.105Z,14.10
2023-02-14T15:16:22.428Z,14.10
2023-02-14T15:18:52.206Z,14.10
2023-02-14T15:21:22.324Z,14.10
2023-02-14T15:23:51.432Z,14.10
2023-02-14T15:26:24.572Z,14.10
2023-02-14T15:28:59.736Z,14.00
2023-02-14T15:31:33.328Z,14.00
2023-02-14T15:34:03.148Z,14.00
2023-02-14T15:36:35.607Z,14.00
2023-02-14T15:39:08.230Z,13.90
2023-02-14T15:41:37.254Z,13.90
2023-02-14T15:44:06.189Z,13.90
2023-02-14T15:46:38.372Z,13.80
2023-02-14T15:49:12.058Z,13.80
2023-02-14T15:51:44.053Z,13.80
2023-02-14T15:54:33.345Z,13.70
2023-02-14T15:57:02.698Z,13.70
2023-02-14T15:59:36.737Z,13.70
2023-02-14T16:02:27.529Z,13.60
2023-02-14T16:04:56.435Z,13.50
2023-02-14T16:07:29.211Z,13.50
2023-02-14T16:10:22.890Z,13.40
2023-02-14T16:13:01.097Z,13.30
2023-02-14T16:15:31.897Z,13.40
2023-02-14T16:18:01.133Z,13.20
2023-02-14T16:20:46.976Z,13.10
2023-02-14T16:23:25.852Z,13.00
2023-02-14T16:25:57.276Z,12.90
2023-02-14T16:28:29.896Z,12.80
2023-02-14T16:31:01.245Z,12.80
2023-02-14T16:33:32.162Z,12.70
2023-02-14T16:36:09.544Z,12.60
2023-02-14T16:38:45.608Z,12.50
2023-02-14T16:41:19.849Z,12.40
2023-02-14T16:43:48.831Z,12.40
2023-02-14T16:46:21.792Z,12.30
2023-02-14T16:48:52.483Z,12.20
2023-02-14T16:51:24.168Z,12.10
2023-02-14T16:53:54.729Z,12.00
2023-02-14T16:56:27.908Z,11.90
2023-02-14T16:58:58.570Z,11.90
2023-02-14T17:01:27.234Z,11.80
2023-02-14T17:03:55.660Z,11.70
2023-02-14T17:06:28.717Z,11.60
2023-02-14T17:09:00.370Z,11.60
2023-02-14T17:11:32.642Z,11.40
2023-02-14T17:14:01.229Z,11.90
2023-02-14T17:16:31.676Z,11.30
2023-02-14T17:19:00.302Z,11.40
2023-02-14T17:21:28.839Z,11.10
2023-02-14T17:23:58.512Z,11.10
2023-02-14T17:26:26.850Z,11.00
2023-02-14T17:28:55.449Z,10.90
2023-02-14T17:31:23.937Z,10.80
2023-02-14T17:33:52.302Z,10.70
2023-02-14T17:36:20.690Z,10.60
2023-02-14T17:38:48.976Z,10.60
2023-02-14T17:41:22.249Z,10.50
2023-02-14T17:43:51.946Z,10.40
2023-02-14T17:46:20.638Z,10.40
2023-02-14T17:48:49.776Z,10.30
2023-02-14T17:51:20.434Z,10.20
2023-02-14T17:53:49.588Z,10.10
2023-02-14T17:56:22.473Z,10.00
2023-02-14T17:58:52.827Z,10.10
2023-02-14T18:01:26.143Z,9.90
2023-02-14T18:03:55.403Z,9.80
2023-02-14T18:06:23.974Z,9.80
2023-02-14T18:08:53.151Z,9.70
2023-02-14T18:11:22.973Z,9.70
2023-02-14T18:13:51.377Z,9.60
2023-02-14T18:16:20.878Z,9.60
2023-02-14T18:18:49.341Z,9.60
2023-02-14T18:21:21.017Z,9.40
2023-02-14T18:23:49.950Z,9.40
2023-02-14T18:26:19.487Z,9.30
2023-02-14T18:28:50.968Z,9.30
2023-02-14T18:31:19.637Z,9.30
2023-02-14T18:33:49.590Z,9.20
2023-02-14T18:36:20.559Z,9.20
2023-02-14T18:38:49.990Z,9.10
2023-02-14T18:41:20.461Z,9.10
2023-02-14T18:43:50.918Z,9.20
2023-02-14T18:46:23.878Z,9.00
2023-02-14T18:48:52.734Z,9.00
2023-02-14T18:51:24.624Z,8.90
2023-02-14T18:53:54.542Z,9.10
2023-02-14T18:56:25.588Z,8.90
2023-02-14T18:59:00.226Z,8.80
2023-02-14T19:01:31.553Z,9.00
2023-02-14T19:04:01.572Z,8.70
2023-02-14T19:06:32.392Z,8.60
2023-02-14T19:09:01.457Z,8.60
2023-02-14T19:11:32.782Z,8.70
2023-02-14T19:14:09.353Z,8.40
2023-02-14T19:16:42.118Z,8.40
2023-02-14T19:19:11.160Z,8.30
2023-02-14T19:21:39.545Z,8.20
2023-02-14T19:24:09.837Z,8.20
2023-02-14T19:26:40.983Z,8.20
2023-02-14T19:29:13.341Z,8.10
2023-02-14T19:31:44.532Z,8.20
2023-02-14T19:34:18.199Z,8.00
2023-02-14T19:36:47.850Z,7.90
2023-02-14T19:39:16.999Z,7.90
2023-02-14T19:41:45.682Z,7.90
2023-02-14T19:44:17.142Z,7.80
2023-02-14T19:46:47.745Z,7.80
2023-02-14T19:49:19.263Z,7.70
2023-02-14T19:51:51.175Z,7.70
2023-02-14T19:54:22.965Z,7.60
2023-02-14T19:56:52.417Z,7.90
2023-02-14T19:59:22.887Z,7.60
2023-02-14T20:01:54.199Z,7.60
2023-02-14T20:04:25.695Z,7.50
2023-02-14T20:06:55.431Z,7.40
2023-02-14T20:09:25.721Z,7.40
2023-02-14T20:11:56.491Z,7.40
2023-02-14T20:14:29.229Z,7.40
2023-02-14T20:17:00.585Z,7.50
2023-02-14T20:19:33.170Z,7.70
2023-02-14T20:22:02.426Z,7.20
2023-02-14T20:24:32.950Z,7.20
2023-02-14T20:27:02.435Z,7.20
2023-02-14T20:29:33.221Z,7.10
2023-02-14T20:32:03.636Z,7.10
2023-02-14T20:34:32.265Z,7.10
2023-02-14T20:37:00.751Z,7.10
2023-02-14T20:39:31.972Z,7.00
2023-02-14T20:42:00.668Z,6.90
2023-02-14T20:44:31.205Z,6.90
2023-02-14T20:46:59.765Z,6.80
2023-02-14T20:49:30.715Z,6.80
2023-02-14T20:51:59.702Z,6.80
2023-02-14T20:54:30.181Z,6.80
2023-02-14T20:56:58.931Z,7.00
2023-02-14T20:59:28.766Z,6.90
2023-02-14T21:02:00.163Z,6.60
2023-02-14T21:04:29.847Z,6.90
2023-02-14T21:07:00.268Z,6.60
2023-02-14T21:09:28.710Z,6.70
2023-02-14T21:11:58.385Z,6.50
2023-02-14T21:14:26.873Z,6.90
2023-02-14T21:16:55.210Z,6.50
2023-02-14T21:19:26.674Z,6.70
2023-02-14T21:21:55.441Z,6.40
2023-02-14T21:24:24.372Z,6.40
2023-02-14T21:26:52.767Z,6.40
2023-02-14T21:29:21.449Z,6.40
2023-02-14T21:31:49.885Z,6.30
2023-02-14T21:34:18.427Z,6.30
2023-02-14T21:36:48.200Z,6.30
2023-02-14T21:39:16.534Z,6.30
2023-02-14T21:41:44.844Z,6.30
2023-02-14T21:44:33.326Z,6.50
2023-02-14T21:47:01.648Z,6.20
2023-02-14T21:49:48.188Z,6.20
2023-02-14T21:52:17.882Z,6.20
2023-02-14T21:54:46.221Z,6.10
2023-02-14T21:57:14.515Z,6.10
2023-02-14T21:59:42.830Z,6.10
2023-02-14T22:02:12.785Z,6.10
2023-02-14T22:04:43.209Z,6.00
2023-02-14T22:07:11.696Z,6.00
2023-02-14T22:09:41.406Z,6.00
2023-02-14T22:12:09.848Z,6.00
2023-02-14T22:15:02.772Z,5.90
2023-02-14T22:17:33.087Z,6.00
2023-02-14T22:20:01.489Z,5.90
2023-02-14T22:22:30.048Z,5.80
2023-02-14T22:24:59.905Z,5.80
2023-02-14T22:27:30.187Z,5.80
2023-02-14T22:29:58.744Z,5.80
2023-02-14T22:32:27.275Z,5.70
2023-02-14T22:34:56.148Z,5.90
2023-02-14T22:37:24.602Z,5.70
2023-02-14T22:39:52.873Z,5.70
2023-02-14T22:42:22.688Z,5.70
2023-02-14T22:44:51.274Z,6.10
2023-02-14T22:47:19.625Z,5.60
2023-02-14T22:49:48.432Z,5.60
2023-02-14T22:52:16.967Z,5.60
2023-02-14T22:54:45.589Z,5.60
2023-02-14T22:57:13.960Z,5.60
2023-02-14T22:59:43.867Z,5.50
2023-02-14T23:02:12.283Z,5.50
2023-02-14T23:04:40.632Z,5.50
2023-02-14T23:07:11.991Z,5.50
2023-02-14T23:09:40.720Z,5.50
2023-02-14T23:12:29.181Z,5.50
2023-02-14T23:15:16.620Z,5.50
2023-02-14T23:18:02.787Z,5.50
2023-02-14T23:20:49.278Z,6.60
2023-02-14T23:23:17.880Z,5.40
2023-02-14T23:25:46.626Z,5.40
2023-02-14T23:28:14.928Z,5.40
2023-02-14T23:30:44.921Z,5.40
2023-02-14T23:33:13.383Z,5.40
2023-02-14T23:35:41.921Z,5.30
2023-02-14T23:38:10.411Z,5.30
2023-02-14T23:40:52.711Z,5.30
2023-02-14T23:43:21.084Z,5.30
2023-02-14T23:45:51.038Z,5.30
2023-02-14T23:48:20.092Z,5.30
2023-02-14T23:50:48.338Z,5.30
2023-02-14T23:53:16.761Z,5.20
2023-02-14T23:55:45.344Z,5.20
2023-02-14T23:58:13.639Z,5.20
